Time;durP1;ratioP1;P1;durP2;ratioP2;P2;SDS_P1;SDS_P2;PMS_P1;PMS_P2;Temp;Humidity;BMP_temperature;BMP_pressure;BME280_temperature;BME280_humidity;BME280_pressure;Samples;Min_cycle;Max_cycle;Signal;HPM_P1;HPM_P2
2022/02/13 00:01:30;;;;;;;;;;;22.90;99.90;;;;;;5073588;28;19940;-72
2022/02/13 00:03:57;;;;;;;;;;;22.90;99.90;;;;;;5073043;28;19912;-73
2022/02/13 00:06:23;;;;;;;;;;;23.00;99.90;;;;;;5073355;28;20309;-73
2022/02/13 00:08:50;;;;;;;;;;;23.10;99.90;;;;;;5073145;28;19920;-74
2022/02/13 00:11:17;;;;;;;;;;;23.30;99.90;;;;;;5073202;28;19921;-73
2022/02/13 00:13:44;;;;;;;;;;;23.30;99.90;;;;;;5073243;28;19912;-72
2022/02/13 00:16:10;;;;;;;;;;;23.40;99.90;;;;;;5073125;28;19920;-74
2022/02/13 00:18:37;;;;;;;;;;;23.30;99.90;;;;;;5073287;28;20315;-72
2022/02/13 00:21:03;;;;;;;;;;;23.40;99.90;;;;;;5072345;28;20399;-71
2022/02/13 00:23:30;;;;;;;;;;;23.40;99.90;;;;;;5073559;28;20032;-72
2022/02/13 00:25:57;;;;;;;;;;;23.40;99.90;;;;;;5072907;28;20437;-72
2022/02/13 00:28:23;;;;;;;;;;;23.30;99.90;;;;;;5073355;28;19913;-73
2022/02/13 00:30:50;;;;;;;;;;;23.40;99.90;;;;;;5073127;28;19920;-72
2022/02/13 00:33:17;;;;;;;;;;;23.40;99.90;;;;;;5073199;28;19916;-72
2022/02/13 00:35:45;;;;;;;;;;;23.60;99.90;;;;;;5072087;28;20007;-72
2022/02/13 00:38:12;;;;;;;;;;;23.60;99.90;;;;;;5073047;28;19913;-73
2022/02/13 00:40:39;;;;;;;;;;;23.70;99.90;;;;;;5072821;28;19908;-72
2022/02/13 00:43:06;;;;;;;;;;;23.90;99.90;;;;;;5073037;28;19919;-73
2022/02/13 00:45:33;;;;;;;;;;;23.90;99.90;;;;;;5072599;28;20019;-72
2022/02/13 00:48:00;;;;;;;;;;;23.90;99.90;;;;;;5071325;28;19966;-73
2022/02/13 00:50:26;;;;;;;;;;;23.90;99.90;;;;;;5072250;28;19921;-74
2022/02/13 00:52:53;;;;;;;;;;;24.00;99.90;;;;;;5073134;28;19915;-73
2022/02/13 00:55:20;;;;;;;;;;;24.10;99.90;;;;;;5072730;28;19920;-72
2022/02/13 00:57:46;;;;;;;;;;;24.20;99.90;;;;;;5072284;28;20291;-72
2022/02/13 01:00:13;;;;;;;;;;;24.10;99.90;;;;;;5072351;28;19920;-73
2022/02/13 01:02:40;;;;;;;;;;;24.00;99.90;;;;;;5072496;28;20275;-73
2022/02/13 01:05:07;;;;;;;;;;;23.90;99.90;;;;;;5071750;28;20334;-72
2022/02/13 01:07:33;;;;;;;;;;;23.60;99.90;;;;;;5072477;28;19916;-72
2022/02/13 01:10:00;;;;;;;;;;;23.50;99.90;;;;;;5071527;28;19920;-73
2022/02/13 01:12:27;;;;;;;;;;;23.70;99.90;;;;;;5072412;28;19927;-72
2022/02/13 01:14:53;;;;;;;;;;;23.90;99.90;;;;;;5071955;28;19909;-73
2022/02/13 01:17:20;;;;;;;;;;;24.20;99.90;;;;;;5072266;28;19912;-73
2022/02/13 01:19:47;;;;;;;;;;;24.40;99.90;;;;;;5071688;28;19915;-73
2022/02/13 01:22:13;;;;;;;;;;;24.40;99.90;;;;;;5071978;28;19952;-73
2022/02/13 01:24:40;;;;;;;;;;;24.90;99.90;;;;;;5072284;28;19917;-73
2022/02/13 01:27:07;;;;;;;;;;;25.00;99.90;;;;;;5071545;28;19912;-73
2022/02/13 01:29:34;;;;;;;;;;;25.30;99.90;;;;;;5072327;28;19912;-73
2022/02/13 01:32:00;;;;;;;;;;;25.60;99.90;;;;;;5071726;28;19966;-72
2022/02/13 01:34:27;;;;;;;;;;;26.00;99.90;;;;;;5071237;28;19912;-71
2022/02/13 01:36:54;;;;;;;;;;;26.40;98.20;;;;;;5071717;28;19909;-73
2022/02/13 01:39:21;;;;;;;;;;;26.40;99.20;;;;;;5071161;28;19909;-72
2022/02/13 01:41:49;;;;;;;;;;;26.30;98.90;;;;;;5071536;28;19908;-73
2022/02/13 01:44:29;;;;;;;;;;;26.30;98.70;;;;;;5070977;28;19920;-73
2022/02/13 01:46:56;;;;;;;;;;;26.10;96.40;;;;;;5071194;28;19934;-73
2022/02/13 01:49:23;;;;;;;;;;;25.90;98.80;;;;;;5070546;28;19912;-72
2022/02/13 01:51:49;;;;;;;;;;;25.60;98.40;;;;;;5070260;28;20391;-72
2022/02/13 01:54:16;;;;;;;;;;;25.60;99.20;;;;;;5070602;28;19912;-72
2022/02/13 01:56:43;;;;;;;;;;;26.40;98.40;;;;;;5070538;28;20003;-72
2022/02/13 01:59:11;;;;;;;;;;;26.50;95.50;;;;;;5070265;28;19996;-72
2022/02/13 02:01:37;;;;;;;;;;;26.10;97.00;;;;;;5070654;28;19924;-72
2022/02/13 02:04:04;;;;;;;;;;;25.90;99.20;;;;;;5071240;28;19960;-73
2022/02/13 02:06:31;;;;;;;;;;;25.60;97.50;;;;;;5071190;28;19912;-72
2022/02/13 02:08:57;;;;;;;;;;;25.50;98.60;;;;;;5073789;28;19970;-73
2022/02/13 02:11:24;;;;;;;;;;;25.40;99.80;;;;;;5071070;28;20340;-71
2022/02/13 02:13:51;;;;;;;;;;;25.40;98.50;;;;;;5070985;28;19913;-72
2022/02/13 02:16:17;;;;;;;;;;;25.30;99.60;;;;;;5071003;28;20550;-72
2022/02/13 02:18:44;;;;;;;;;;;25.30;99.90;;;;;;5070642;28;20275;-72
2022/02/13 02:21:10;;;;;;;;;;;25.10;99.90;;;;;;5070959;28;19916;-74
2022/02/13 02:23:39;;;;;;;;;;;25.00;99.90;;;;;;5070788;28;20248;-73
2022/02/13 02:26:06;;;;;;;;;;;25.00;99.90;;;;;;5070651;28;19916;-73
2022/02/13 02:28:33;;;;;;;;;;;25.10;99.90;;;;;;5070702;28;20008;-73
2022/02/13 02:31:00;;;;;;;;;;;25.00;99.90;;;;;;5070430;28;19916;-72
2022/02/13 02:33:27;;;;;;;;;;;25.00;99.90;;;;;;5070889;28;19997;-73
2022/02/13 02:35:54;;;;;;;;;;;25.00;99.90;;;;;;5070430;28;19909;-73
2022/02/13 02:38:21;;;;;;;;;;;25.00;99.90;;;;;;5072754;28;20359;-73
2022/02/13 02:40:48;;;;;;;;;;;24.80;99.90;;;;;;5072673;28;19916;-73
2022/02/13 02:43:14;;;;;;;;;;;24.90;99.90;;;;;;5072778;28;19915;-73
2022/02/13 02:45:41;;;;;;;;;;;24.80;99.90;;;;;;5072051;28;20244;-73
2022/02/13 02:48:07;;;;;;;;;;;24.60;99.90;;;;;;5072500;28;20282;-73
2022/02/13 02:50:34;;;;;;;;;;;24.50;99.90;;;;;;5072757;28;20373;-74
2022/02/13 02:53:01;;;;;;;;;;;24.50;99.90;;;;;;5072666;28;19908;-73
2022/02/13 02:55:27;;;;;;;;;;;24.50;99.90;;;;;;5072375;28;19908;-74
2022/02/13 02:57:54;;;;;;;;;;;24.50;99.90;;;;;;5072354;28;19991;-74
2022/02/13 03:00:21;;;;;;;;;;;24.30;99.90;;;;;;5071786;28;20399;-73
2022/02/13 03:02:47;;;;;;;;;;;24.20;99.90;;;;;;5072992;28;19916;-74
2022/02/13 03:05:14;;;;;;;;;;;24.00;99.90;;;;;;5072456;28;19912;-74
2022/02/13 03:07:41;;;;;;;;;;;24.00;99.90;;;;;;5072584;28;20406;-73
2022/02/13 03:10:07;;;;;;;;;;;24.10;99.90;;;;;;5071533;28;19912;-74
2022/02/13 03:12:34;;;;;;;;;;;24.10;99.90;;;;;;5072427;28;19939;-73
2022/02/13 03:15:01;;;;;;;;;;;24.20;99.90;;;;;;5071825;28;19909;-73
2022/02/13 03:17:27;;;;;;;;;;;24.30;99.90;;;;;;5072435;28;19913;-73
2022/02/13 03:19:54;;;;;;;;;;;24.30;99.90;;;;;;5072621;28;20003;-73
2022/02/13 03:22:20;;;;;;;;;;;24.40;99.90;;;;;;5072407;28;19944;-73
2022/02/13 03:24:47;;;;;;;;;;;24.30;99.90;;;;;;5071908;28;19974;-74
2022/02/13 03:27:14;;;;;;;;;;;24.40;99.90;;;;;;5072352;28;19919;-74
2022/02/13 03:29:40;;;;;;;;;;;24.40;99.90;;;;;;5072092;28;20291;-74
2022/02/13 03:32:07;;;;;;;;;;;24.30;99.90;;;;;;5071554;28;19963;-74
2022/02/13 03:34:34;;;;;;;;;;;24.30;99.90;;;;;;5072127;28;20402;-74
2022/02/13 03:37:01;;;;;;;;;;;24.40;99.90;;;;;;5071947;28;19961;-73
2022/02/13 03:39:28;;;;;;;;;;;24.40;99.90;;;;;;5071338;28;20333;-73
2022/02/13 03:41:55;;;;;;;;;;;24.30;99.90;;;;;;5071974;28;19993;-74
2022/02/13 03:44:22;;;;;;;;;;;24.30;99.90;;;;;;5072183;28;19915;-73
2022/02/13 03:46:50;;;;;;;;;;;24.20;99.70;;;;;;5071212;28;19909;-73
2022/02/13 03:49:18;;;;;;;;;;;24.20;99.90;;;;;;5072139;28;19916;-73
2022/02/13 03:51:44;;;;;;;;;;;24.40;99.90;;;;;;5072023;28;20343;-72
2022/02/13 03:54:11;;;;;;;;;;;24.30;98.70;;;;;;5071863;28;20432;-72
2022/02/13 03:56:38;;;;;;;;;;;24.20;99.40;;;;;;5071733;28;19958;-73
2022/02/13 03:59:04;;;;;;;;;;;24.30;99.20;;;;;;5071621;28;19912;-72
2022/02/13 04:01:31;;;;;;;;;;;24.30;99.30;;;;;;5072080;28;19915;-72
2022/02/13 04:03:58;;;;;;;;;;;24.30;99.80;;;;;;5071881;28;19908;-73
2022/02/13 04:06:24;;;;;;;;;;;24.30;99.90;;;;;;5071763;28;20430;-73
2022/02/13 04:08:51;;;;;;;;;;;24.20;99.90;;;;;;5071895;28;20786;-74
2022/02/13 04:11:17;;;;;;;;;;;24.20;99.90;;;;;;5071760;28;19962;-73
2022/02/13 04:13:44;;;;;;;;;;;24.30;99.90;;;;;;5071983;28;19940;-72
2022/02/13 04:16:11;;;;;;;;;;;24.40;99.90;;;;;;5071793;28;20283;-73
2022/02/13 04:18:37;;;;;;;;;;;24.50;99.90;;;;;;5071946;28;19943;-72
2022/02/13 04:21:04;;;;;;;;;;;24.60;99.90;;;;;;5071866;28;19908;-72
2022/02/13 04:23:32;;;;;;;;;;;24.60;99.90;;;;;;5074532;28;20295;-73
2022/02/13 04:26:01;;;;;;;;;;;24.60;99.90;;;;;;5075324;28;19975;-72
2022/02/13 04:28:29;;;;;;;;;;;24.60;99.90;;;;;;5075468;28;20381;-73
2022/02/13 04:30:55;;;;;;;;;;;24.60;99.90;;;;;;5075266;28;19920;-73
2022/02/13 04:33:22;;;;;;;;;;;24.50;99.90;;;;;;5075317;28;19962;-72
2022/02/13 04:35:49;;;;;;;;;;;24.50;99.90;;;;;;5075083;28;19954;-73
2022/02/13 04:38:16;;;;;;;;;;;24.30;99.90;;;;;;5075337;28;19915;-74
2022/02/13 04:40:42;;;;;;;;;;;24.30;99.90;;;;;;5075153;28;19909;-73
2022/02/13 04:43:09;;;;;;;;;;;24.30;99.90;;;;;;5075096;28;20233;-73
2022/02/13 04:45:36;;;;;;;;;;;24.30;99.90;;;;;;5075356;28;19934;-74
2022/02/13 04:48:02;;;;;;;;;;;24.20;99.90;;;;;;5074719;28;19909;-73
2022/02/13 04:50:30;;;;;;;;;;;24.20;99.90;;;;;;5074915;28;19999;-73
2022/02/13 04:52:56;;;;;;;;;;;24.10;99.90;;;;;;5075122;28;20050;-74
2022/02/13 04:55:23;;;;;;;;;;;24.10;99.90;;;;;;5074821;28;19909;-73
2022/02/13 04:57:50;;;;;;;;;;;24.20;99.90;;;;;;5074587;28;19944;-74
2022/02/13 05:00:17;;;;;;;;;;;24.20;99.90;;;;;;5074641;28;19924;-74
2022/02/13 05:02:44;;;;;;;;;;;24.30;99.90;;;;;;5074747;28;19930;-74
2022/02/13 05:05:11;;;;;;;;;;;24.20;99.90;;;;;;5074947;28;19944;-74
2022/02/13 05:07:38;;;;;;;;;;;24.10;99.90;;;;;;5074849;28;20355;-73
2022/02/13 05:10:05;;;;;;;;;;;24.10;99.90;;;;;;5074352;28;19915;-74
2022/02/13 05:12:32;;;;;;;;;;;24.00;99.90;;;;;;5074488;28;19917;-74
2022/02/13 05:14:58;;;;;;;;;;;24.00;99.90;;;;;;5074506;28;19908;-73
2022/02/13 05:17:25;;;;;;;;;;;23.90;99.90;;;;;;5074554;28;19962;-73
2022/02/13 05:19:52;;;;;;;;;;;24.00;99.90;;;;;;5074217;28;19909;-73
2022/02/13 05:22:18;;;;;;;;;;;23.90;99.90;;;;;;5074218;28;19969;-74
2022/02/13 05:24:45;;;;;;;;;;;23.90;99.90;;;;;;5074454;28;19963;-74
2022/02/13 05:27:13;;;;;;;;;;;24.10;99.90;;;;;;5074321;28;19951;-73
2022/02/13 05:29:40;;;;;;;;;;;24.00;99.90;;;;;;5074280;28;19920;-74
2022/02/13 05:32:07;;;;;;;;;;;24.10;99.90;;;;;;5073907;28;20213;-74
2022/02/13 05:34:33;;;;;;;;;;;24.00;99.90;;;;;;5073888;28;19912;-74
2022/02/13 05:37:00;;;;;;;;;;;23.80;99.90;;;;;;5074043;28;20325;-73
2022/02/13 05:39:27;;;;;;;;;;;23.80;99.90;;;;;;5073918;28;20348;-74
2022/02/13 05:41:53;;;;;;;;;;;23.90;99.90;;;;;;5073939;28;19999;-74
2022/02/13 05:44:20;;;;;;;;;;;23.90;99.90;;;;;;5073992;28;20367;-73
2022/02/13 05:46:47;;;;;;;;;;;23.90;99.90;;;;;;5073960;28;19909;-74
2022/02/13 05:49:13;;;;;;;;;;;24.00;99.90;;;;;;5073810;28;19932;-74
2022/02/13 05:51:40;;;;;;;;;;;23.90;99.90;;;;;;5073655;28;19925;-74
2022/02/13 05:54:07;;;;;;;;;;;23.90;99.90;;;;;;5073402;28;19908;-73
2022/02/13 05:56:33;;;;;;;;;;;23.80;99.90;;;;;;5073707;28;19943;-74
2022/02/13 05:59:00;;;;;;;;;;;23.70;99.90;;;;;;5073459;28;19912;-74
2022/02/13 06:01:27;;;;;;;;;;;23.50;99.90;;;;;;5073709;28;19994;-73
2022/02/13 06:03:54;;;;;;;;;;;23.50;99.90;;;;;;5073266;28;19961;-73
2022/02/13 06:06:20;;;;;;;;;;;23.60;99.90;;;;;;5073635;28;19918;-74
2022/02/13 06:08:47;;;;;;;;;;;23.70;99.90;;;;;;5073279;28;20071;-73
2022/02/13 06:11:14;;;;;;;;;;;23.60;99.90;;;;;;5073313;28;20367;-73
2022/02/13 06:13:40;;;;;;;;;;;23.60;99.90;;;;;;5073277;28;19999;-73
2022/02/13 06:16:08;;;;;;;;;;;23.70;99.90;;;;;;5073294;28;20378;-73
2022/02/13 06:18:35;;;;;;;;;;;23.70;99.90;;;;;;5073354;28;19962;-73
2022/02/13 06:21:02;;;;;;;;;;;23.60;99.90;;;;;;5073224;28;19928;-73
2022/02/13 06:23:29;;;;;;;;;;;23.50;99.90;;;;;;5073244;28;19947;-73
2022/02/13 06:25:57;;;;;;;;;;;23.50;99.90;;;;;;5072910;28;19940;-73
2022/02/13 06:28:23;;;;;;;;;;;23.50;99.90;;;;;;5073342;28;19915;-73
2022/02/13 06:30:51;;;;;;;;;;;23.40;99.90;;;;;;5073161;28;19917;-73
2022/02/13 06:33:18;;;;;;;;;;;23.40;99.90;;;;;;5072994;28;19934;-74
2022/02/13 06:35:45;;;;;;;;;;;23.40;99.90;;;;;;5073074;28;20359;-73
2022/02/13 06:38:12;;;;;;;;;;;23.40;99.90;;;;;;5072638;28;19919;-73
2022/02/13 06:40:39;;;;;;;;;;;23.30;99.90;;;;;;5072690;28;19908;-74
2022/02/13 06:43:06;;;;;;;;;;;23.30;99.90;;;;;;5072731;28;19924;-73
2022/02/13 06:45:32;;;;;;;;;;;23.30;99.90;;;;;;5071980;28;19909;-73
2022/02/13 06:47:59;;;;;;;;;;;23.20;99.90;;;;;;5072596;28;19908;-73
2022/02/13 06:50:27;;;;;;;;;;;23.30;99.90;;;;;;5072772;28;19999;-73
2022/02/13 06:52:54;;;;;;;;;;;23.30;99.90;;;;;;5072620;28;19962;-73
2022/02/13 06:55:20;;;;;;;;;;;23.30;99.90;;;;;;5072486;28;19909;-73
2022/02/13 06:57:48;;;;;;;;;;;23.30;99.90;;;;;;5072476;28;19913;-74
2022/02/13 07:00:15;;;;;;;;;;;23.40;99.90;;;;;;5072150;28;20047;-73
2022/02/13 07:02:42;;;;;;;;;;;23.40;99.90;;;;;;5072357;28;19912;-74
2022/02/13 07:05:09;;;;;;;;;;;23.30;99.90;;;;;;5072675;28;19948;-74
2022/02/13 07:07:39;;;;;;;;;;;23.40;99.90;;;;;;5071790;28;19973;-74
2022/02/13 07:10:06;;;;;;;;;;;23.30;99.90;;;;;;5071965;28;19916;-74
2022/02/13 07:12:33;;;;;;;;;;;23.20;99.90;;;;;;5072578;28;19917;-74
2022/02/13 07:15:00;;;;;;;;;;;23.20;99.90;;;;;;5072578;28;19915;-74
2022/02/13 07:17:26;;;;;;;;;;;23.10;99.90;;;;;;5072603;28;20382;-74
2022/02/13 07:19:53;;;;;;;;;;;23.20;99.90;;;;;;5072335;28;19908;-74
2022/02/13 07:22:21;;;;;;;;;;;23.10;99.90;;;;;;5072237;28;19915;-74
2022/02/13 07:24:48;;;;;;;;;;;23.10;99.90;;;;;;5072266;28;19970;-74
2022/02/13 07:27:15;;;;;;;;;;;23.00;99.90;;;;;;5072408;28;19940;-74
2022/02/13 07:29:41;;;;;;;;;;;22.90;99.90;;;;;;5072305;28;19940;-74
2022/02/13 07:32:08;;;;;;;;;;;22.90;99.90;;;;;;5071900;28;19920;-74
2022/02/13 07:34:35;;;;;;;;;;;22.90;99.90;;;;;;5072229;28;20363;-74
2022/02/13 07:37:05;;;;;;;;;;;22.90;99.90;;;;;;5072454;28;19916;-74
2022/02/13 07:39:41;;;;;;;;;;;22.90;99.90;;;;;;5072340;28;20326;-74
2022/02/13 07:42:07;;;;;;;;;;;22.90;99.90;;;;;;5072272;28;19935;-74
2022/02/13 07:44:34;;;;;;;;;;;22.90;99.90;;;;;;5072131;28;19909;-73
2022/02/13 07:47:01;;;;;;;;;;;22.80;99.90;;;;;;5071949;28;19920;-74
2022/02/13 07:49:28;;;;;;;;;;;22.70;99.90;;;;;;5072220;28;19909;-74
2022/02/13 07:51:54;;;;;;;;;;;22.70;99.90;;;;;;5071752;28;19921;-73
2022/02/13 07:54:21;;;;;;;;;;;22.70;99.90;;;;;;5072037;28;19913;-74
2022/02/13 07:56:47;;;;;;;;;;;22.70;99.90;;;;;;5073613;28;19959;-74
2022/02/13 07:59:14;;;;;;;;;;;22.70;99.90;;;;;;5075813;28;20019;-74
2022/02/13 08:01:41;;;;;;;;;;;22.70;99.90;;;;;;5075976;28;19932;-74
2022/02/13 08:04:07;;;;;;;;;;;22.70;99.90;;;;;;5075430;28;19961;-74
2022/02/13 08:06:34;;;;;;;;;;;22.60;99.90;;;;;;5075794;28;20446;-73
2022/02/13 08:09:01;;;;;;;;;;;22.60;99.90;;;;;;5075473;28;19908;-73
2022/02/13 08:11:27;;;;;;;;;;;22.50;99.90;;;;;;5075643;28;19999;-73
2022/02/13 08:13:54;;;;;;;;;;;22.50;99.90;;;;;;5075087;28;19989;-73
2022/02/13 08:16:21;;;;;;;;;;;22.50;99.90;;;;;;5074879;28;20370;-73
2022/02/13 08:18:48;;;;;;;;;;;22.50;99.90;;;;;;5075449;28;19909;-74
2022/02/13 08:21:15;;;;;;;;;;;22.40;99.90;;;;;;5075451;28;19908;-74
2022/02/13 08:23:41;;;;;;;;;;;22.40;99.90;;;;;;5075211;28;19970;-74
2022/02/13 08:26:09;;;;;;;;;;;22.40;99.90;;;;;;5075201;28;20382;-74
2022/02/13 08:28:36;;;;;;;;;;;22.40;99.90;;;;;;5075387;28;20002;-74
2022/02/13 08:31:03;;;;;;;;;;;22.40;99.90;;;;;;5074641;28;19924;-74
2022/02/13 08:33:30;;;;;;;;;;;22.30;99.90;;;;;;5075164;28;19970;-74
2022/02/13 08:35:57;;;;;;;;;;;22.30;99.90;;;;;;5075050;28;20019;-75
2022/02/13 08:38:23;;;;;;;;;;;22.20;99.90;;;;;;5075128;28;19912;-74
2022/02/13 08:40:51;;;;;;;;;;;22.20;99.90;;;;;;5074900;28;19966;-74
2022/02/13 08:43:18;;;;;;;;;;;22.20;99.90;;;;;;5075147;28;19909;-74
2022/02/13 08:45:46;;;;;;;;;;;22.20;99.90;;;;;;5074648;28;19915;-74
2022/02/13 08:48:13;;;;;;;;;;;22.20;99.90;;;;;;5075060;28;19909;-74
2022/02/13 08:50:40;;;;;;;;;;;22.20;99.90;;;;;;5074796;28;20359;-74
2022/02/13 08:53:07;;;;;;;;;;;22.20;99.90;;;;;;5074789;28;20360;-74
2022/02/13 08:55:34;;;;;;;;;;;22.20;99.90;;;;;;5074947;28;19915;-74
2022/02/13 08:58:00;;;;;;;;;;;22.10;99.90;;;;;;5074296;28;19912;-73
2022/02/13 09:00:27;;;;;;;;;;;22.10;99.90;;;;;;5074047;28;19966;-73
2022/02/13 09:02:54;;;;;;;;;;;22.10;99.90;;;;;;5074824;28;20351;-73
2022/02/13 09:05:20;;;;;;;;;;;22.10;99.90;;;;;;5074817;28;19912;-74
2022/02/13 09:07:47;;;;;;;;;;;22.10;99.90;;;;;;5073724;28;19916;-74
2022/02/13 09:10:15;;;;;;;;;;;22.00;99.90;;;;;;5074561;28;20247;-73
2022/02/13 09:12:42;;;;;;;;;;;22.00;99.90;;;;;;5074427;28;20014;-73
2022/02/13 09:15:09;;;;;;;;;;;22.00;99.90;;;;;;5073951;28;19908;-73
2022/02/13 09:17:36;;;;;;;;;;;21.90;99.90;;;;;;5074377;28;19915;-73
2022/02/13 09:20:03;;;;;;;;;;;22.00;99.90;;;;;;5074321;28;19948;-73
2022/02/13 09:22:30;;;;;;;;;;;21.90;99.90;;;;;;5074315;28;19913;-73
2022/02/13 09:24:56;;;;;;;;;;;21.90;99.90;;;;;;5074268;28;20274;-73
2022/02/13 09:27:23;;;;;;;;;;;21.90;99.90;;;;;;5074441;28;19915;-73
2022/02/13 09:29:52;;;;;;;;;;;21.90;99.90;;;;;;5073543;28;19913;-73
2022/02/13 09:32:19;;;;;;;;;;;21.90;99.90;;;;;;5074101;28;19928;-73
2022/02/13 09:34:46;;;;;;;;;;;21.90;99.90;;;;;;5073939;28;20374;-73
2022/02/13 09:37:12;;;;;;;;;;;21.90;99.90;;;;;;5074112;28;19908;-73
2022/02/13 09:39:39;;;;;;;;;;;21.80;99.90;;;;;;5073817;28;19936;-73
2022/02/13 09:42:06;;;;;;;;;;;21.80;99.90;;;;;;5073809;28;19962;-73
2022/02/13 09:44:34;;;;;;;;;;;21.80;99.90;;;;;;5073330;28;19916;-74
2022/02/13 09:47:00;;;;;;;;;;;21.70;99.90;;;;;;5073657;28;19913;-74
2022/02/13 09:49:27;;;;;;;;;;;21.70;99.90;;;;;;5073832;28;19909;-74
2022/02/13 09:51:54;;;;;;;;;;;21.70;99.90;;;;;;5073566;28;20057;-74
2022/02/13 09:54:21;;;;;;;;;;;21.70;99.90;;;;;;5073384;28;19916;-74
2022/02/13 09:56:50;;;;;;;;;;;21.70;99.90;;;;;;5073750;28;20379;-74
2022/02/13 09:59:17;;;;;;;;;;;21.70;99.90;;;;;;5073024;28;20051;-74
2022/02/13 10:01:47;;;;;;;;;;;21.70;99.90;;;;;;5073828;28;19913;-73
2022/02/13 10:04:14;;;;;;;;;;;21.70;99.90;;;;;;5073468;28;19969;-74
2022/02/13 10:06:41;;;;;;;;;;;21.70;99.90;;;;;;5073542;28;19912;-73
2022/02/13 10:09:09;;;;;;;;;;;21.60;99.90;;;;;;5073510;28;20413;-73
2022/02/13 10:11:38;;;;;;;;;;;21.60;99.90;;;;;;5073502;28;20019;-74
2022/02/13 10:14:14;;;;;;;;;;;21.50;99.90;;;;;;5073237;28;20376;-72
2022/02/13 10:16:45;;;;;;;;;;;21.50;99.90;;;;;;5073371;28;20278;-72
2022/02/13 10:19:13;;;;;;;;;;;21.50;99.90;;;;;;5072904;28;19916;-71
2022/02/13 10:21:39;;;;;;;;;;;21.40;99.90;;;;;;5072646;28;19915;-71
2022/02/13 10:24:15;;;;;;;;;;;21.40;99.90;;;;;;5073095;28;19912;-71
2022/02/13 10:26:42;;;;;;;;;;;21.40;99.90;;;;;;5073190;28;19999;-70
2022/02/13 10:29:11;;;;;;;;;;;21.40;99.90;;;;;;5072538;28;19978;-71
2022/02/13 10:31:42;;;;;;;;;;;21.40;99.90;;;;;;5073089;28;20342;-71
2022/02/13 10:34:11;;;;;;;;;;;21.40;99.90;;;;;;5072919;28;20363;-71
2022/02/13 10:36:40;;;;;;;;;;;21.40;99.90;;;;;;5073050;28;20011;-71
2022/02/13 10:39:17;;;;;;;;;;;21.40;99.90;;;;;;5072828;28;19908;-71
2022/02/13 10:41:43;;;;;;;;;;;21.40;99.90;;;;;;5072917;28;19908;-71
2022/02/13 10:44:10;;;;;;;;;;;21.30;99.90;;;;;;5072364;28;19951;-71
2022/02/13 10:46:38;;;;;;;;;;;21.30;99.90;;;;;;5072940;28;19908;-71
2022/02/13 10:49:05;;;;;;;;;;;21.30;99.90;;;;;;5072437;28;19954;-72
2022/02/13 10:51:33;;;;;;;;;;;21.30;99.90;;;;;;5072706;28;19927;-72
2022/02/13 10:54:02;;;;;;;;;;;21.20;99.90;;;;;;5072270;28;19915;-71
2022/02/13 10:56:28;;;;;;;;;;;21.20;99.90;;;;;;5072663;28;20347;-71
2022/02/13 10:58:59;;;;;;;;;;;21.30;99.90;;;;;;5072225;28;19912;-71
2022/02/13 11:01:26;;;;;;;;;;;21.20;99.90;;;;;;5072560;28;19917;-71
2022/02/13 11:04:03;;;;;;;;;;;21.20;99.90;;;;;;5072293;28;19909;-71
2022/02/13 11:06:33;;;;;;;;;;;21.20;99.90;;;;;;5072529;28;19916;-71
2022/02/13 11:09:09;;;;;;;;;;;21.20;99.90;;;;;;5072209;28;19913;-71
2022/02/13 11:11:38;;;;;;;;;;;21.10;99.90;;;;;;5072086;28;20102;-70
2022/02/13 11:14:05;;;;;;;;;;;21.20;99.90;;;;;;5071869;28;19909;-71
2022/02/13 11:16:33;;;;;;;;;;;21.20;99.90;;;;;;5072349;28;20400;-71
2022/02/13 11:19:19;;;;;;;;;;;21.10;99.90;;;;;;5072410;28;20019;-71
2022/02/13 11:21:46;;;;;;;;;;;21.10;99.90;;;;;;5072461;28;19909;-71
2022/02/13 11:24:26;;;;;;;;;;;21.10;99.90;;;;;;5072169;28;19909;-71
2022/02/13 11:26:53;;;;;;;;;;;21.10;99.90;;;;;;5072380;28;19909;-72
2022/02/13 11:29:19;;;;;;;;;;;21.10;99.90;;;;;;5072200;28;19908;-73
2022/02/13 11:31:50;;;;;;;;;;;21.10;99.90;;;;;;5073962;28;19923;-71
2022/02/13 11:34:19;;;;;;;;;;;21.00;99.90;;;;;;5076345;28;19919;-71
2022/02/13 11:36:50;;;;;;;;;;;21.00;99.90;;;;;;5076144;28;19908;-71
2022/02/13 11:39:35;;;;;;;;;;;21.00;99.90;;;;;;5076355;28;20273;-71
2022/02/13 11:42:09;;;;;;;;;;;20.90;99.90;;;;;;5076034;28;19909;-71
2022/02/13 11:44:42;;;;;;;;;;;20.90;99.90;;;;;;5076106;28;20327;-71
2022/02/13 11:47:12;;;;;;;;;;;20.90;99.90;;;;;;5075706;28;19908;-70
2022/02/13 11:49:57;;;;;;;;;;;20.80;99.90;;;;;;5076226;28;19913;-71
2022/02/13 11:52:27;;;;;;;;;;;20.80;99.90;;;;;;5076079;28;20424;-71
2022/02/13 11:54:54;;;;;;;;;;;20.80;99.90;;;;;;5075962;28;19916;-71
2022/02/13 11:57:21;;;;;;;;;;;20.80;99.90;;;;;;5075982;28;20402;-71
2022/02/13 11:59:48;;;;;;;;;;;20.80;99.90;;;;;;5075374;28;20011;-71
2022/02/13 12:02:15;;;;;;;;;;;20.70;99.90;;;;;;5075407;28;20332;-71
2022/02/13 12:05:05;;;;;;;;;;;20.70;99.90;;;;;;5075859;28;20053;-71
2022/02/13 12:07:35;;;;;;;;;;;20.70;99.90;;;;;;5072155;28;19908;-72
2022/02/13 12:10:02;;;;;;;;;;;20.70;99.90;;;;;;5075384;28;20323;-71
2022/02/13 12:12:28;;;;;;;;;;;20.70;99.90;;;;;;5075820;28;20019;-71
2022/02/13 12:14:55;;;;;;;;;;;20.70;99.90;;;;;;5075955;28;19908;-71
2022/02/13 12:17:26;;;;;;;;;;;20.70;99.90;;;;;;5075897;28;20430;-71
2022/02/13 12:20:07;;;;;;;;;;;20.70;99.90;;;;;;5075610;28;19999;-72
2022/02/13 12:22:36;;;;;;;;;;;20.70;99.90;;;;;;5075468;28;19908;-73
2022/02/13 12:25:10;;;;;;;;;;;20.70;99.90;;;;;;5075644;28;19909;-72
2022/02/13 12:27:40;;;;;;;;;;;20.70;99.90;;;;;;5075606;28;20003;-72
2022/02/13 12:30:10;;;;;;;;;;;20.70;99.90;;;;;;5075318;28;19916;-72
2022/02/13 12:32:38;;;;;;;;;;;20.70;99.90;;;;;;5075424;28;19924;-72
2022/02/13 12:35:09;;;;;;;;;;;20.60;99.90;;;;;;5075471;28;20352;-71
2022/02/13 12:37:38;;;;;;;;;;;20.50;99.90;;;;;;5075344;28;19909;-72
2022/02/13 12:40:05;;;;;;;;;;;20.50;99.90;;;;;;5075220;28;19938;-72
2022/02/13 12:42:33;;;;;;;;;;;20.40;99.90;;;;;;5074744;28;19908;-72
2022/02/13 12:45:00;;;;;;;;;;;20.30;99.90;;;;;;5075070;28;20327;-72
2022/02/13 12:47:31;;;;;;;;;;;20.30;99.90;;;;;;5075394;28;20378;-72
2022/02/13 12:50:05;;;;;;;;;;;20.30;99.90;;;;;;5075388;28;20359;-72
2022/02/13 12:52:32;;;;;;;;;;;20.30;99.90;;;;;;5075299;28;19917;-72
2022/02/13 12:55:02;;;;;;;;;;;20.20;99.90;;;;;;5075358;28;19915;-72
2022/02/13 12:57:29;;;;;;;;;;;20.30;99.90;;;;;;5075168;28;19908;-72
2022/02/13 12:59:55;;;;;;;;;;;20.20;99.90;;;;;;5074732;28;19977;-72
2022/02/13 13:02:26;;;;;;;;;;;20.30;99.90;;;;;;5075171;28;19938;-72
2022/02/13 13:04:52;;;;;;;;;;;20.20;99.90;;;;;;5074979;28;20355;-73
2022/02/13 13:07:26;;;;;;;;;;;20.20;99.90;;;;;;5074838;28;19916;-71
2022/02/13 13:09:52;;;;;;;;;;;20.20;99.90;;;;;;5075010;28;19987;-72
2022/02/13 13:12:20;;;;;;;;;;;20.20;99.90;;;;;;5074783;28;19916;-71
2022/02/13 13:14:56;;;;;;;;;;;20.10;99.90;;;;;;5074745;28;19961;-71
2022/02/13 13:17:23;;;;;;;;;;;20.20;99.90;;;;;;5074734;28;19909;-72
2022/02/13 13:19:50;;;;;;;;;;;20.10;99.90;;;;;;5074528;28;19958;-71
2022/02/13 13:22:18;;;;;;;;;;;20.00;99.90;;;;;;5074354;28;19909;-71
2022/02/13 13:24:46;;;;;;;;;;;20.00;99.90;;;;;;5074420;28;19908;-71
2022/02/13 13:27:20;;;;;;;;;;;20.00;99.90;;;;;;5074421;28;19908;-72
2022/02/13 13:29:47;;;;;;;;;;;20.00;99.90;;;;;;5074365;28;20351;-71
2022/02/13 13:32:15;;;;;;;;;;;19.90;99.90;;;;;;5074371;28;19916;-72
2022/02/13 13:34:48;;;;;;;;;;;19.90;99.90;;;;;;5074182;28;19908;-71
2022/02/13 13:37:33;;;;;;;;;;;19.90;99.90;;;;;;5074183;28;19909;-71
2022/02/13 13:40:03;;;;;;;;;;;19.90;99.90;;;;;;5074049;28;19915;-71
2022/02/13 13:42:35;;;;;;;;;;;20.00;99.90;;;;;;5074174;28;19999;-71
2022/02/13 13:45:08;;;;;;;;;;;20.00;99.90;;;;;;5074214;28;20350;-71
2022/02/13 13:47:36;;;;;;;;;;;20.00;99.90;;;;;;5074092;28;19908;-71
2022/02/13 13:50:03;;;;;;;;;;;20.00;99.90;;;;;;5073891;28;19916;-72
2022/02/13 13:52:30;;;;;;;;;;;20.00;99.90;;;;;;5073873;28;19963;-71
2022/02/13 13:54:57;;;;;;;;;;;20.00;99.90;;;;;;5073751;28;19916;-72
2022/02/13 13:57:24;;;;;;;;;;;20.00;99.90;;;;;;5073999;28;19915;-71
2022/02/13 13:59:50;;;;;;;;;;;20.00;99.90;;;;;;5073489;28;20286;-71
2022/02/13 14:02:24;;;;;;;;;;;20.00;99.90;;;;;;5073762;28;19999;-71
2022/02/13 14:04:51;;;;;;;;;;;20.10;99.90;;;;;;5073587;28;19912;-71
2022/02/13 14:07:18;;;;;;;;;;;20.10;99.90;;;;;;5073376;28;19908;-71
2022/02/13 14:09:45;;;;;;;;;;;20.10;99.90;;;;;;5073672;28;20004;-71
2022/02/13 14:12:14;;;;;;;;;;;20.00;99.90;;;;;;5073610;28;20317;-72
2022/02/13 14:14:41;;;;;;;;;;;20.10;99.90;;;;;;5073404;28;19909;-71
2022/02/13 14:17:08;;;;;;;;;;;20.10;99.90;;;;;;5073640;28;19909;-70
2022/02/13 14:19:35;;;;;;;;;;;20.10;99.90;;;;;;5073349;28;19909;-70